Time;durP1;ratioP1;P1;durP2;ratioP2;P2;SDS_P1;SDS_P2;PMS_P1;PMS_P2;Temp;Humidity;BMP_temperature;BMP_pressure;BME280_temperature;BME280_humidity;BME280_pressure;Samples;Min_cycle;Max_cycle;Signal;HPM_P1;HPM_P2
2023/04/09 00:00:37;;;;;;;4.65;4.45;;;;;;;;;;5022991;28;20062;-95
2023/04/09 00:03:04;;;;;;;5.35;4.60;;;;;;;;;;5033222;28;20123;-95
2023/04/09 00:05:32;;;;;;;4.45;4.25;;;;;;;;;;5038950;28;20467;-95
2023/04/09 00:07:58;;;;;;;5.15;4.85;;;;;;;;;;5038443;28;20111;-94
2023/04/09 00:10:25;;;;;;;3.50;3.33;;;;;;;;;;5038207;28;20042;-94
2023/04/09 00:12:51;;;;;;;3.92;3.72;;;;;;;;;;5037756;28;20049;-94
2023/04/09 00:15:18;;;;;;;4.55;4.35;;;;;;;;;;5038144;28;20046;-95
2023/04/09 00:17:45;;;;;;;4.43;4.22;;;;;;;;;;5034507;28;20049;-95
2023/04/09 00:20:11;;;;;;;6.63;6.32;;;;;;;;;;5016894;28;20518;-94
2023/04/09 00:22:39;;;;;;;5.30;5.00;;;;;;;;;;5018739;28;20050;-96
2023/04/09 00:25:06;;;;;;;5.10;4.80;;;;;;;;;;5018944;28;20050;-96
2023/04/09 00:27:33;;;;;;;6.28;5.85;;;;;;;;;;5018506;28;20053;-95
2023/04/09 00:30:00;;;;;;;4.82;4.63;;;;;;;;;;5018078;28;20478;-95
2023/04/09 00:32:26;;;;;;;5.50;5.20;;;;;;;;;;5030079;28;20041;-96
2023/04/09 00:34:53;;;;;;;5.43;4.93;;;;;;;;;;5043770;28;20037;-94
2023/04/09 00:37:19;;;;;;;5.70;5.30;;;;;;;;;;5040137;28;20112;-96
2023/04/09 00:39:47;;;;;;;6.35;6.00;;;;;;;;;;5019735;28;20405;-95
2023/04/09 00:42:15;;;;;;;5.90;5.45;;;;;;;;;;5017726;28;20054;-96
2023/04/09 00:44:41;;;;;;;5.65;5.40;;;;;;;;;;5018175;28;20115;-96
2023/04/09 00:47:08;;;;;;;6.97;6.47;;;;;;;;;;5017377;28;20677;-94
2023/04/09 00:49:35;;;;;;;5.15;4.88;;;;;;;;;;5016954;28;20046;-94
2023/04/09 00:52:01;;;;;;;5.20;4.82;;;;;;;;;;5024183;28;20045;-95
2023/04/09 00:54:28;;;;;;;5.35;4.95;;;;;;;;;;5019505;28;20057;-95
2023/04/09 00:56:57;;;;;;;6.18;5.80;;;;;;;;;;5017836;28;20053;-95
2023/04/09 00:59:24;;;;;;;4.95;4.68;;;;;;;;;;5017477;28;20093;-96
2023/04/09 01:01:51;;;;;;;5.78;5.47;;;;;;;;;;5018866;28;20060;-96
2023/04/09 01:04:18;;;;;;;8.38;7.50;;;;;;;;;;5018666;28;20054;-96
2023/04/09 01:06:49;;;;;;;6.22;5.65;;;;;;;;;;5018496;28;20468;-96
2023/04/09 01:09:15;;;;;;;;;;;;;;;;;;5020944;28;20049;-96
2023/04/09 01:11:44;;;;;;;3.40;3.20;;;;;;;;;;5018151;28;19929;-95
2023/04/09 01:14:18;;;;;;;5.38;4.97;;;;;;;;;;5018602;28;20046;-93
2023/04/09 01:16:47;;;;;;;4.63;4.28;;;;;;;;;;5020443;28;20041;-93
2023/04/09 01:19:21;;;;;;;4.22;4.03;;;;;;;;;;5025124;28;20046;-94
2023/04/09 01:21:48;;;;;;;5.47;5.10;;;;;;;;;;5024909;28;20084;-95
2023/04/09 01:24:19;;;;;;;3.40;3.20;;;;;;;;;;5025527;28;20050;-95
2023/04/09 01:26:53;;;;;;;5.78;5.35;;;;;;;;;;5040364;28;20077;-94
2023/04/09 01:29:22;;;;;;;5.65;5.25;;;;;;;;;;5045323;28;20045;-95
2023/04/09 01:31:50;;;;;;;5.30;4.90;;;;;;;;;;5036877;28;20107;-95
2023/04/09 01:34:16;;;;;;;6.03;5.68;;;;;;;;;;5037038;28;20049;-95
2023/04/09 01:36:45;;;;;;;4.97;4.57;;;;;;;;;;5036240;28;20053;-93
2023/04/09 01:39:11;;;;;;;4.15;3.85;;;;;;;;;;5035891;28;20049;-94
2023/04/09 01:41:39;;;;;;;4.05;2.53;;;;;;;;;;5036270;28;20495;-96
2023/04/09 01:44:07;;;;;;;3.60;3.30;;;;;;;;;;5040277;28;20457;-95
2023/04/09 01:46:36;;;;;;;4.10;3.90;;;;;;;;;;5036389;28;20509;-95
2023/04/09 01:49:03;;;;;;;5.28;4.68;;;;;;;;;;5036362;28;20053;-94
2023/04/09 01:51:31;;;;;;;5.82;5.53;;;;;;;;;;5036623;28;20053;-95
2023/04/09 01:53:58;;;;;;;5.00;4.72;;;;;;;;;;5020373;28;20142;-95
2023/04/09 01:56:25;;;;;;;5.65;5.35;;;;;;;;;;5016594;28;20049;-94
2023/04/09 01:58:52;;;;;;;5.15;4.75;;;;;;;;;;5022272;28;20049;-96
2023/04/09 02:01:22;;;;;;;5.18;4.88;;;;;;;;;;5036579;28;20144;-95
2023/04/09 02:03:54;;;;;;;3.15;2.95;;;;;;;;;;5036615;28;20053;-95
2023/04/09 02:06:20;;;;;;;;;;;;;;;;;;5036795;28;20444;-96
2023/04/09 02:08:47;;;;;;;4.32;3.92;;;;;;;;;;5036515;28;20340;-95
2023/04/09 02:11:14;;;;;;;2.75;2.65;;;;;;;;;;5036168;28;20053;-95
2023/04/09 02:13:42;;;;;;;3.08;2.97;;;;;;;;;;5023616;28;20176;-95
2023/04/09 02:16:10;;;;;;;4.85;4.65;;;;;;;;;;5035562;28;20045;-95
2023/04/09 02:18:37;;;;;;;7.20;6.75;;;;;;;;;;5036624;28;20053;-95
2023/04/09 02:21:05;;;;;;;6.07;5.78;;;;;;;;;;5036933;28;20471;-95
2023/04/09 02:23:32;;;;;;;5.00;4.75;;;;;;;;;;5037237;28;20060;-95
2023/04/09 02:25:59;;;;;;;5.32;5.03;;;;;;;;;;5036090;28;20072;-96
2023/04/09 02:28:25;;;;;;;4.68;4.47;;;;;;;;;;5036682;28;20049;-95
2023/04/09 02:30:52;;;;;;;4.18;3.97;;;;;;;;;;5036613;28;20057;-95
2023/04/09 02:33:19;;;;;;;5.18;4.88;;;;;;;;;;5025502;28;20112;-95
2023/04/09 02:35:45;;;;;;;4.65;4.35;;;;;;;;;;5017280;28;20050;-95
2023/04/09 02:38:14;;;;;;;3.72;3.42;;;;;;;;;;5017278;28;20426;-96
2023/04/09 02:40:41;;;;;;;4.97;4.50;;;;;;;;;;5016924;28;20183;-96
2023/04/09 02:43:08;;;;;;;3.60;3.40;;;;;;;;;;5018270;28;20494;-95
2023/04/09 02:45:34;;;;;;;6.18;4.75;;;;;;;;;;5018369;28;20120;-95
2023/04/09 02:48:01;;;;;;;2.97;2.88;;;;;;;;;;5017254;28;20049;-94
2023/04/09 02:50:27;;;;;;;3.92;3.70;;;;;;;;;;5019818;28;20112;-96
2023/04/09 02:52:54;;;;;;;5.10;4.82;;;;;;;;;;5015895;28;20053;-95
2023/04/09 02:55:22;;;;;;;3.28;3.08;;;;;;;;;;5015965;28;20460;-95
2023/04/09 02:57:48;;;;;;;3.38;3.25;;;;;;;;;;5016311;28;20077;-95
2023/04/09 03:00:15;;;;;;;7.00;6.70;;;;;;;;;;5015501;28;20116;-94
2023/04/09 03:02:42;;;;;;;3.83;3.53;;;;;;;;;;5015859;28;20457;-94
2023/04/09 03:05:08;;;;;;;4.68;4.30;;;;;;;;;;5015960;28;20057;-94
2023/04/09 03:07:35;;;;;;;4.38;4.18;;;;;;;;;;5020309;28;20416;-93
2023/04/09 03:10:01;;;;;;;2.78;2.67;;;;;;;;;;5015645;28;20054;-93
2023/04/09 03:12:29;;;;;;;6.18;5.68;;;;;;;;;;5015269;28;20046;-94
2023/04/09 03:14:56;;;;;;;5.22;4.82;;;;;;;;;;5015399;28;20076;-96
2023/04/09 03:17:24;;;;;;;4.18;3.97;;;;;;;;;;5016044;28;20081;-95
2023/04/09 03:19:51;;;;;;;4.35;4.13;;;;;;;;;;5015841;28;20041;-93
2023/04/09 03:22:17;;;;;;;3.08;2.90;;;;;;;;;;5015455;28;20481;-93
2023/04/09 03:24:44;;;;;;;5.30;5.10;;;;;;;;;;5019721;28;20045;-93
2023/04/09 03:27:10;;;;;;;4.65;4.38;;;;;;;;;;5034440;28;20421;-95
2023/04/09 03:29:38;;;;;;;3.10;2.80;;;;;;;;;;5035270;28;20049;-96
2023/04/09 03:32:05;;;;;;;3.42;3.00;;;;;;;;;;5034997;28;20584;-95
2023/04/09 03:34:31;;;;;;;3.70;3.25;;;;;;;;;;5020414;28;20050;-96
2023/04/09 03:36:58;;;;;;;5.93;5.50;;;;;;;;;;5015617;28;20053;-95
2023/04/09 03:39:25;;;;;;;3.67;3.38;;;;;;;;;;5015318;28;20061;-95
2023/04/09 03:41:52;;;;;;;4.82;4.53;;;;;;;;;;5018963;28;20121;-95
2023/04/09 03:44:18;;;;;;;4.00;3.80;;;;;;;;;;5034141;28;20552;-95
2023/04/09 03:46:46;;;;;;;4.18;3.88;;;;;;;;;;5034706;28;20111;-95
2023/04/09 03:49:12;;;;;;;3.50;3.30;;;;;;;;;;5034562;28;20559;-94
2023/04/09 03:51:39;;;;;;;5.15;4.72;;;;;;;;;;5035126;28;20053;-94
2023/04/09 03:54:06;;;;;;;6.45;5.50;;;;;;;;;;5036181;28;20092;-95
2023/04/09 03:56:32;;;;;;;4.38;4.07;;;;;;;;;;5038723;28;20049;-94
2023/04/09 03:58:59;;;;;;;9.95;9.50;;;;;;;;;;5035739;28;20053;-95
2023/04/09 04:01:25;;;;;;;4.60;4.28;;;;;;;;;;5038746;28;20107;-94
2023/04/09 04:03:53;;;;;;;4.65;4.25;;;;;;;;;;5038170;28;20049;-94
2023/04/09 04:06:20;;;;;;;5.22;4.70;;;;;;;;;;5038604;28;20054;-95
2023/04/09 04:08:46;;;;;;;12.68;5.18;;;;;;;;;;5038740;28;20049;-95
2023/04/09 04:11:13;;;;;;;4.38;4.15;;;;;;;;;;5038389;28;20045;-95
2023/04/09 04:13:40;;;;;;;6.18;5.78;;;;;;;;;;5038593;28;20742;-95
2023/04/09 04:16:07;;;;;;;6.38;5.88;;;;;;;;;;5035445;28;20456;-93
2023/04/09 04:18:33;;;;;;;8.13;7.63;;;;;;;;;;5037369;28;20041;-94
2023/04/09 04:21:01;;;;;;;5.65;5.32;;;;;;;;;;5037923;28;20099;-93
2023/04/09 04:23:28;;;;;;;4.85;4.60;;;;;;;;;;5038164;28;20054;-94
2023/04/09 04:25:56;;;;;;;5.63;5.32;;;;;;;;;;5037852;28;20054;-94
2023/04/09 04:28:23;;;;;;;6.55;6.05;;;;;;;;;;5037591;28;20053;-94
2023/04/09 04:30:49;;;;;;;4.10;3.80;;;;;;;;;;5037763;28;20049;-94
2023/04/09 04:33:16;;;;;;;5.68;5.28;;;;;;;;;;5036377;28;20053;-94
2023/04/09 04:35:42;;;;;;;7.18;5.03;;;;;;;;;;5037605;28;20115;-95
2023/04/09 04:38:11;;;;;;;6.03;5.57;;;;;;;;;;5037172;28;20103;-93
2023/04/09 04:40:37;;;;;;;8.02;7.63;;;;;;;;;;5037361;28;20049;-94
2023/04/09 04:43:04;;;;;;;8.48;8.07;;;;;;;;;;5037181;28;20053;-95
2023/04/09 04:45:30;;;;;;;6.65;6.18;;;;;;;;;;5037118;28;20087;-94
2023/04/09 04:47:57;;;;;;;4.85;4.50;;;;;;;;;;5037209;28;20042;-94
2023/04/09 04:50:23;;;;;;;7.03;6.63;;;;;;;;;;5030186;28;20555;-93
2023/04/09 04:52:50;;;;;;;6.82;6.43;;;;;;;;;;5017925;28;20054;-95
2023/04/09 04:55:18;;;;;;;10.63;6.68;;;;;;;;;;5017714;28;20100;-94
2023/04/09 04:57:44;;;;;;;11.80;4.40;;;;;;;;;;5018042;28;20054;-95
2023/04/09 05:00:12;;;;;;;7.45;6.95;;;;;;;;;;5033438;28;20107;-95
2023/04/09 05:02:38;;;;;;;5.95;5.55;;;;;;;;;;5037457;28;20111;-95
2023/04/09 05:05:05;;;;;;;7.43;6.85;;;;;;;;;;5036675;28;20049;-95
2023/04/09 05:07:33;;;;;;;7.07;6.50;;;;;;;;;;5037720;28;20064;-94
2023/04/09 05:09:59;;;;;;;7.45;7.03;;;;;;;;;;5037347;28;20460;-95
2023/04/09 05:12:27;;;;;;;6.15;5.72;;;;;;;;;;5037549;28;20455;-94
2023/04/09 05:14:55;;;;;;;7.75;7.15;;;;;;;;;;5036978;28;20096;-95
2023/04/09 05:17:22;;;;;;;6.30;5.90;;;;;;;;;;5019440;28;20116;-93
2023/04/09 05:19:51;;;;;;;6.97;6.57;;;;;;;;;;5016709;28;20101;-93
2023/04/09 05:22:17;;;;;;;5.35;5.00;;;;;;;;;;5016981;28;20062;-94
2023/04/09 05:24:44;;;;;;;7.47;6.78;;;;;;;;;;5018399;28;20059;-95
2023/04/09 05:27:10;;;;;;;6.15;5.63;;;;;;;;;;5017092;28;20564;-95
2023/04/09 05:29:38;;;;;;;8.48;7.88;;;;;;;;;;5017294;28;20049;-94
2023/04/09 05:32:05;;;;;;;6.80;6.32;;;;;;;;;;5030068;28;20111;-95
2023/04/09 05:34:32;;;;;;;7.72;7.20;;;;;;;;;;5036383;28;20057;-95
2023/04/09 05:36:58;;;;;;;5.18;4.85;;;;;;;;;;5036105;28;20104;-93
2023/04/09 05:39:25;;;;;;;8.23;7.72;;;;;;;;;;5036483;28;20061;-94
2023/04/09 05:41:52;;;;;;;6.55;6.22;;;;;;;;;;5037371;28;20049;-94
2023/04/09 05:44:19;;;;;;;8.38;7.72;;;;;;;;;;5023772;28;20133;-93
2023/04/09 05:46:47;;;;;;;7.13;6.63;;;;;;;;;;5050578;28;20053;-94
2023/04/09 05:49:13;;;;;;;7.30;6.70;;;;;;;;;;5045403;28;20453;-93
2023/04/09 05:51:42;;;;;;;5.70;5.32;;;;;;;;;;5034779;28;20128;-95
2023/04/09 05:54:08;;;;;;;10.15;9.45;;;;;;;;;;5036110;28;20060;-93
2023/04/09 05:56:35;;;;;;;6.75;6.25;;;;;;;;;;5036887;28;20061;-94
2023/04/09 05:59:02;;;;;;;9.90;9.07;;;;;;;;;;5037214;28;20052;-94
2023/04/09 06:01:28;;;;;;;12.50;7.45;;;;;;;;;;5037855;28;20509;-95
2023/04/09 06:03:56;;;;;;;8.88;8.32;;;;;;;;;;5036474;28;20045;-93
2023/04/09 06:06:23;;;;;;;7.13;6.63;;;;;;;;;;5033463;28;20088;-94
2023/04/09 06:08:49;;;;;;;6.38;5.97;;;;;;;;;;5030225;28;20087;-95
2023/04/09 06:11:16;;;;;;;10.57;10.07;;;;;;;;;;5035772;28;20164;-94
2023/04/09 06:13:42;;;;;;;9.02;7.70;;;;;;;;;;5030318;28;20054;-94
2023/04/09 06:16:09;;;;;;;7.22;6.53;;;;;;;;;;5015404;28;20497;-94
2023/04/09 06:18:36;;;;;;;4.35;4.15;;;;;;;;;;5015454;28;20468;-95
2023/04/09 06:21:05;;;;;;;6.70;6.05;;;;;;;;;;5015391;28;20544;-93
2023/04/09 06:23:32;;;;;;;9.75;9.00;;;;;;;;;;5016740;28;20045;-93
2023/04/09 06:25:59;;;;;;;5.30;5.07;;;;;;;;;;5015089;28;20062;-93
2023/04/09 06:28:26;;;;;;;10.13;9.63;;;;;;;;;;5045699;28;20072;-96
2023/04/09 06:30:53;;;;;;;8.27;7.82;;;;;;;;;;5055095;28;20420;-94
2023/04/09 06:33:20;;;;;;;7.63;7.05;;;;;;;;;;5054956;28;20046;-95
2023/04/09 06:35:47;;;;;;;6.85;6.43;;;;;;;;;;5042742;28;20042;-94
2023/04/09 06:38:15;;;;;;;6.63;6.32;;;;;;;;;;5034838;28;20049;-94
2023/04/09 06:40:42;;;;;;;7.57;6.97;;;;;;;;;;5032416;28;20838;-94
2023/04/09 06:43:08;;;;;;;6.70;6.30;;;;;;;;;;5034234;28;20520;-94
2023/04/09 06:45:36;;;;;;;9.23;8.63;;;;;;;;;;5043165;28;20478;-96
2023/04/09 06:48:03;;;;;;;9.05;8.55;;;;;;;;;;5064202;28;20048;-96
2023/04/09 06:50:29;;;;;;;8.90;8.23;;;;;;;;;;5037687;28;20049;-95
2023/04/09 06:53:01;;;;;;;7.57;6.97;;;;;;;;;;5023399;28;20061;-96
2023/04/09 06:55:29;;;;;;;8.52;7.93;;;;;;;;;;5024608;28;20057;-96
2023/04/09 06:57:56;;;;;;;8.32;7.63;;;;;;;;;;5034793;28;20068;-96
2023/04/09 07:00:23;;;;;;;8.27;7.68;;;;;;;;;;5035587;28;20053;-96
2023/04/09 07:02:49;;;;;;;9.02;8.52;;;;;;;;;;5041242;28;20049;-95
2023/04/09 07:05:16;;;;;;;7.57;7.18;;;;;;;;;;5036408;28;20049;-96
2023/04/09 07:07:43;;;;;;;9.35;8.85;;;;;;;;;;5034757;28;20057;-95
2023/04/09 07:10:09;;;;;;;8.80;8.40;;;;;;;;;;5031921;28;20111;-95
2023/04/09 07:12:37;;;;;;;9.30;8.63;;;;;;;;;;5029689;28;20059;-95
2023/04/09 07:15:05;;;;;;;22.73;21.60;;;;;;;;;;5029967;28;20046;-96
2023/04/09 07:17:32;;;;;;;14.55;13.85;;;;;;;;;;5029270;28;20046;-96
2023/04/09 07:19:58;;;;;;;10.93;10.32;;;;;;;;;;5018592;28;20058;-96
2023/04/09 07:22:26;;;;;;;14.18;13.07;;;;;;;;;;5017204;28;20061;-94
2023/04/09 07:24:53;;;;;;;12.98;12.38;;;;;;;;;;5015290;28;20050;-96
2023/04/09 07:27:20;;;;;;;25.42;24.15;;;;;;;;;;5019909;28;20056;-96
2023/04/09 07:29:50;;;;;;;12.50;11.70;;;;;;;;;;5019149;28;20077;-96
2023/04/09 07:32:17;;;;;;;16.75;15.75;;;;;;;;;;5031270;28;20099;-95
2023/04/09 07:34:43;;;;;;;13.25;12.65;;;;;;;;;;5029240;28;20046;-96
2023/04/09 07:37:10;;;;;;;26.98;25.83;;;;;;;;;;5030484;28;20042;-96
2023/04/09 07:39:36;;;;;;;10.25;9.45;;;;;;;;;;5021066;28;20057;-96
2023/04/09 07:42:03;;;;;;;22.00;20.83;;;;;;;;;;5018971;28;20058;-96
2023/04/09 07:44:30;;;;;;;24.70;23.67;;;;;;;;;;5019551;28;20053;-95
2023/04/09 07:46:57;;;;;;;14.02;12.98;;;;;;;;;;5019588;28;20053;-96
2023/04/09 07:49:24;;;;;;;16.17;14.88;;;;;;;;;;5018689;28;20506;-96
2023/04/09 07:51:51;;;;;;;12.18;11.27;;;;;;;;;;5023210;28;20050;-95
2023/04/09 07:54:19;;;;;;;22.75;21.77;;;;;;;;;;5026855;28;20050;-96
2023/04/09 07:56:46;;;;;;;22.40;21.30;;;;;;;;;;5018042;28;20120;-96
2023/04/09 07:59:14;;;;;;;28.20;26.98;;;;;;;;;;5018616;28;20050;-96
2023/04/09 08:01:40;;;;;;;12.18;11.43;;;;;;;;;;5037293;28;20493;-93
2023/04/09 08:04:08;;;;;;;11.35;10.55;;;;;;;;;;5037798;28;20072;-96
2023/04/09 08:06:36;;;;;;;10.63;9.93;;;;;;;;;;5037738;28;20497;-96
2023/04/09 08:09:03;;;;;;;20.40;19.48;;;;;;;;;;5037014;28;20049;-95
2023/04/09 08:11:29;;;;;;;9.52;8.93;;;;;;;;;;5038400;28;20061;-95
2023/04/09 08:13:56;;;;;;;10.63;9.95;;;;;;;;;;5037713;28;20060;-95
2023/04/09 08:16:23;;;;;;;10.50;9.85;;;;;;;;;;5038389;28;20099;-96
2023/04/09 08:18:49;;;;;;;8.27;7.68;;;;;;;;;;5037734;28;20104;-95
2023/04/09 08:21:18;;;;;;;25.33;24.20;;;;;;;;;;5039499;28;20050;-95
2023/04/09 08:23:44;;;;;;;20.75;19.75;;;;;;;;;;5038045;28;20065;-95
2023/04/09 08:26:11;;;;;;;10.25;9.70;;;;;;;;;;5033740;28;20482;-94
2023/04/09 08:28:37;;;;;;;11.52;10.15;;;;;;;;;;5037533;28;20045;-95
2023/04/09 08:31:04;;;;;;;11.75;11.05;;;;;;;;;;5037505;28;20109;-94
2023/04/09 08:33:31;;;;;;;19.80;18.75;;;;;;;;;;5037172;28;20049;-94
2023/04/09 08:35:57;;;;;;;26.10;24.92;;;;;;;;;;5036866;28;20054;-93
2023/04/09 08:38:26;;;;;;;12.18;11.38;;;;;;;;;;5036635;28;20045;-93
2023/04/09 08:40:52;;;;;;;9.85;9.25;;;;;;;;;;5034342;28;20137;-94
2023/04/09 08:43:19;;;;;;;9.63;8.88;;;;;;;;;;5017823;28;20054;-95
2023/04/09 08:45:46;;;;;;;23.88;22.63;;;;;;;;;;5016957;28;20057;-93
2023/04/09 08:48:13;;;;;;;18.98;18.17;;;;;;;;;;5017195;28;20080;-94
2023/04/09 08:50:40;;;;;;;11.35;10.75;;;;;;;;;;5017064;28;20498;-95
2023/04/09 08:53:08;;;;;;;27.85;26.58;;;;;;;;;;5016899;28;20050;-94
2023/04/09 08:55:36;;;;;;;27.70;26.23;;;;;;;;;;5017421;28;20053;-96
2023/04/09 08:58:04;;;;;;;17.50;16.70;;;;;;;;;;5016954;28;20042;-93
2023/04/09 09:00:31;;;;;;;13.98;13.18;;;;;;;;;;5028112;28;20481;-95
2023/04/09 09:03:04;;;;;;;27.10;25.77;;;;;;;;;;5057123;28;20056;-96
2023/04/09 09:05:40;;;;;;;29.10;27.63;;;;;;;;;;5056499;28;20098;-96
2023/04/09 09:08:07;;;;;;;27.95;26.85;;;;;;;;;;5057122;28;20049;-96
2023/04/09 09:10:38;;;;;;;16.20;15.55;;;;;;;;;;5051804;28;20472;-95
2023/04/09 09:13:16;;;;;;;25.85;24.58;;;;;;;;;;5036839;28;20068;-95
2023/04/09 09:15:43;;;;;;;31.25;29.80;;;;;;;;;;5034436;28;20123;-95
2023/04/09 09:18:10;;;;;;;17.23;16.40;;;;;;;;;;5035204;28;20464;-94
2023/04/09 09:20:36;;;;;;;22.48;21.58;;;;;;;;;;5035884;28;20049;-95
2023/04/09 09:23:03;;;;;;;24.35;22.95;;;;;;;;;;5048384;28;20080;-94
2023/04/09 09:25:30;;;;;;;14.85;13.95;;;;;;;;;;5057167;28;20498;-95
2023/04/09 09:28:07;;;;;;;14.38;13.68;;;;;;;;;;5039403;28;20409;-94
2023/04/09 09:30:35;;;;;;;12.30;11.70;;;;;;;;;;5036385;28;20056;-93
2023/04/09 09:33:05;;;;;;;11.32;10.73;;;;;;;;;;5034117;28;20493;-96
2023/04/09 09:35:46;;;;;;;25.80;24.52;;;;;;;;;;5034772;28;20566;-95
2023/04/09 09:38:12;;;;;;;14.35;13.65;;;;;;;;;;5016423;28;20046;-94
2023/04/09 09:40:39;;;;;;;11.95;11.35;;;;;;;;;;5016117;28;20050;-94
2023/04/09 09:43:07;;;;;;;13.70;13.00;;;;;;;;;;5016409;28;20111;-95
2023/04/09 09:45:33;;;;;;;23.67;22.77;;;;;;;;;;5016147;28;20050;-93
2023/04/09 09:48:00;;;;;;;31.95;30.25;;;;;;;;;;5016630;28;20098;-93
2023/04/09 09:50:30;;;;;;;27.83;26.63;;;;;;;;;;5017883;28;20140;-94
2023/04/09 09:52:59;;;;;;;24.88;23.80;;;;;;;;;;5017532;28;20498;-94
2023/04/09 09:55:27;;;;;;;15.77;14.80;;;;;;;;;;5016328;28;20057;-93
2023/04/09 09:57:55;;;;;;;31.67;30.13;;;;;;;;;;5015519;28;20046;-92
2023/04/09 10:00:24;;;;;;;16.98;15.90;;;;;;;;;;5015750;28;20053;-91
2023/04/09 10:02:54;;;;;;;25.70;24.63;;;;;;;;;;5015814;28;20073;-92
2023/04/09 10:05:25;;;;;;;29.55;28.08;;;;;;;;;;5015644;28;20054;-93
2023/04/09 10:07:54;;;;;;;30.60;29.30;;;;;;;;;;5018885;28;20046;-91
2023/04/09 10:10:21;;;;;;;27.10;25.98;;;;;;;;;;5016008;28;20050;-94
2023/04/09 10:12:48;;;;;;;30.25;28.95;;;;;;;;;;5015534;28;20095;-92
2023/04/09 10:15:15;;;;;;;27.85;26.65;;;;;;;;;;5015267;28;20045;-91
2023/04/09 10:17:43;;;;;;;31.63;30.42;;;;;;;;;;5014843;28;20108;-92
2023/04/09 10:20:11;;;;;;;29.13;27.95;;;;;;;;;;5015192;28;20066;-92
2023/04/09 10:22:38;;;;;;;24.65;23.73;;;;;;;;;;5014919;28;20472;-93
2023/04/09 10:25:05;;;;;;;28.27;27.05;;;;;;;;;;5015002;28;20057;-92
2023/04/09 10:27:31;;;;;;;26.58;25.52;;;;;;;;;;5016857;28;20865;-92
2023/04/09 10:30:00;;;;;;;28.98;27.58;;;;;;;;;;5014690;28;20049;-93
2023/04/09 10:32:27;;;;;;;27.73;26.50;;;;;;;;;;5015001;28;20049;-95
2023/04/09 10:34:59;;;;;;;24.65;23.52;;;;;;;;;;5014864;28;20049;-93
2023/04/09 10:37:26;;;;;;;30.73;29.48;;;;;;;;;;5015094;28;20092;-94
2023/04/09 10:39:53;;;;;;;14.15;13.30;;;;;;;;;;5014755;28;20057;-94
2023/04/09 10:42:23;;;;;;;26.33;25.20;;;;;;;;;;5014897;28;20509;-94
2023/04/09 10:45:04;;;;;;;13.75;13.15;;;;;;;;;;5017156;28;20498;-94
2023/04/09 10:47:36;;;;;;;11.85;11.25;;;;;;;;;;5014673;28;20108;-93
2023/04/09 10:50:18;;;;;;;15.65;14.63;;;;;;;;;;5014630;28;20402;-94
2023/04/09 10:52:44;;;;;;;14.32;13.48;;;;;;;;;;5014712;28;20054;-94
2023/04/09 10:55:29;;;;;;;22.48;21.58;;;;;;;;;;5014782;28;20104;-94
2023/04/09 10:57:56;;;;;;;12.57;12.05;;;;;;;;;;5014022;28;20140;-94
2023/04/09 11:00:23;;;;;;;28.77;27.38;;;;;;;;;;5014358;28;20050;-94
2023/04/09 11:03:10;;;;;;;28.42;27.15;;;;;;;;;;5028637;28;20049;-93
2023/04/09 11:05:39;;;;;;;13.30;12.70;;;;;;;;;;5028958;28;20777;-91
2023/04/09 11:08:08;;;;;;;24.73;23.67;;;;;;;;;;5043592;28;20061;-93
2023/04/09 11:10:35;;;;;;;29.75;28.25;;;;;;;;;;5035066;28;20080;-95
2023/04/09 11:13:02;;;;;;;24.70;23.70;;;;;;;;;;5034920;28;20069;-93
2023/04/09 11:15:28;;;;;;;27.58;26.35;;;;;;;;;;5034828;28;20493;-94
2023/04/09 11:17:56;;;;;;;27.77;26.52;;;;;;;;;;5034559;28;20041;-94
2023/04/09 11:20:24;;;;;;;31.10;29.70;;;;;;;;;;5024604;28;20038;-93
2023/04/09 11:22:53;;;;;;;23.35;22.30;;;;;;;;;;5015818;28;20053;-93
2023/04/09 11:25:20;;;;;;;25.65;24.52;;;;;;;;;;5015378;28;20057;-95
2023/04/09 11:27:47;;;;;;;21.23;20.33;;;;;;;;;;5014421;28;20050;-94
2023/04/09 11:30:13;;;;;;;26.20;25.10;;;;;;;;;;5014216;28;20567;-94
2023/04/09 11:32:40;;;;;;;12.73;12.10;;;;;;;;;;5028687;28;20068;-94
2023/04/09 11:35:11;;;;;;;28.33;27.13;;;;;;;;;;5033614;28;20045;-93
2023/04/09 11:37:38;;;;;;;12.93;12.30;;;;;;;;;;5021075;28;20041;-94
2023/04/09 11:40:07;;;;;;;21.98;21.02;;;;;;;;;;5033721;28;20558;-94
2023/04/09 11:42:35;;;;;;;11.50;11.00;;;;;;;;;;5019969;28;20050;-93
2023/04/09 11:45:02;;;;;;;12.65;12.05;;;;;;;;;;5014093;28;20396;-94
2023/04/09 11:47:28;;;;;;;12.98;12.38;;;;;;;;;;5013866;28;20046;-93
2023/04/09 11:49:55;;;;;;;11.57;11.00;;;;;;;;;;5013334;28;20057;-92
2023/04/09 11:52:22;;;;;;;10.50;9.80;;;;;;;;;;5013494;28;20053;-93
2023/04/09 11:54:49;;;;;;;9.90;9.25;;;;;;;;;;5023749;28;20477;-93
2023/04/09 11:57:17;;;;;;;10.50;9.90;;;;;;;;;;5033800;28;20050;-94
2023/04/09 11:59:43;;;;;;;9.13;8.68;;;;;;;;;;5031681;28;20054;-92
2023/04/09 12:02:10;;;;;;;9.60;9.00;;;;;;;;;;5034091;28;20045;-93
2023/04/09 12:04:36;;;;;;;9.73;9.23;;;;;;;;;;5033862;28;20096;-93
2023/04/09 12:07:03;;;;;;;21.90;20.88;;;;;;;;;;5033723;28;20041;-92
2023/04/09 12:09:30;;;;;;;8.30;7.90;;;;;;;;;;5032812;28;20509;-92
2023/04/09 12:12:01;;;;;;;6.07;5.68;;;;;;;;;;5031602;28;20111;-92
2023/04/09 12:14:28;;;;;;;11.07;10.57;;;;;;;;;;5034207;28;20076;-92
2023/04/09 12:16:55;;;;;;;9.40;8.93;;;;;;;;;;5037542;28;20485;-92
2023/04/09 12:19:25;;;;;;;8.77;8.20;;;;;;;;;;5037038;28;20056;-92
2023/04/09 12:21:54;;;;;;;9.43;8.88;;;;;;;;;;5037036;28;20053;-92
2023/04/09 12:24:21;;;;;;;8.25;7.75;;;;;;;;;;5037153;28;20132;-92
2023/04/09 12:26:48;;;;;;;8.23;7.72;;;;;;;;;;5031855;28;20136;-93
2023/04/09 12:29:15;;;;;;;19.58;18.42;;;;;;;;;;5019291;28;20130;-91
2023/04/09 12:31:44;;;;;;;9.50;8.88;;;;;;;;;;5017252;28;20077;-92
2023/04/09 12:34:10;;;;;;;8.23;7.88;;;;;;;;;;5017451;28;20054;-92
2023/04/09 12:36:37;;;;;;;8.50;8.00;;;;;;;;;;5019844;28;20049;-93
2023/04/09 12:39:04;;;;;;;7.78;7.30;;;;;;;;;;5035968;28;20088;-93
2023/04/09 12:41:30;;;;;;;8.95;8.45;;;;;;;;;;5021402;28;20046;-93
2023/04/09 12:43:57;;;;;;;11.05;10.43;;;;;;;;;;5017082;28;20062;-93
2023/04/09 12:46:24;;;;;;;10.18;9.40;;;;;;;;;;5017444;28;20052;-92
2023/04/09 12:48:52;;;;;;;7.78;7.35;;;;;;;;;;5016939;28;20074;-92
2023/04/09 12:51:19;;;;;;;8.75;8.25;;;;;;;;;;5016201;28;20045;-93
2023/04/09 12:53:46;;;;;;;10.32;9.57;;;;;;;;;;5016597;28;20069;-93
2023/04/09 12:56:13;;;;;;;10.88;10.27;;;;;;;;;;5018739;28;20046;-92
2023/04/09 12:58:40;;;;;;;8.57;8.18;;;;;;;;;;5015903;28;20053;-93
2023/04/09 13:01:06;;;;;;;9.38;8.90;;;;;;;;;;5016917;28;20057;-93
2023/04/09 13:03:33;;;;;;;9.25;8.70;;;;;;;;;;5016815;28;20060;-92
2023/04/09 13:06:01;;;;;;;8.38;7.40;;;;;;;;;;5016497;28;20544;-92
2023/04/09 13:08:27;;;;;;;8.23;7.78;;;;;;;;;;5016591;28;20127;-92
2023/04/09 13:10:54;;;;;;;9.95;9.45;;;;;;;;;;5016666;28;20050;-91
2023/04/09 13:13:20;;;;;;;10.98;10.32;;;;;;;;;;5029951;28;20049;-91
2023/04/09 13:15:47;;;;;;;12.25;11.60;;;;;;;;;;5035633;28;20053;-92
2023/04/09 13:18:13;;;;;;;11.43;10.80;;;;;;;;;;5035948;28;20045;-91
2023/04/09 13:20:40;;;;;;;10.27;9.55;;;;;;;;;;5036183;28;20049;-93
2023/04/09 13:23:08;;;;;;;10.48;9.80;;;;;;;;;;5035758;28;20053;-92
2023/04/09 13:25:34;;;;;;;8.50;7.95;;;;;;;;;;5035435;28;20065;-92
2023/04/09 13:28:01;;;;;;;7.63;7.10;;;;;;;;;;5035320;28;20042;-92
2023/04/09 13:30:27;;;;;;;8.10;7.55;;;;;;;;;;5034137;28;20049;-92
2023/04/09 13:32:54;;;;;;;7.95;7.45;;;;;;;;;;5016240;28;20096;-91
2023/04/09 13:35:21;;;;;;;9.85;9.32;;;;;;;;;;5016119;28;20465;-91
2023/04/09 13:37:47;;;;;;;7.18;6.68;;;;;;;;;;5016121;28;20049;-91
2023/04/09 13:40:17;;;;;;;7.63;7.13;;;;;;;;;;5016163;28;20046;-91
2023/04/09 13:42:43;;;;;;;9.25;8.65;;;;;;;;;;5015736;28;20133;-92
2023/04/09 13:45:10;;;;;;;9.60;9.10;;;;;;;;;;5016432;28;20485;-92
2023/04/09 13:47:36;;;;;;;7.55;7.15;;;;;;;;;;5024597;28;20099;-92
2023/04/09 13:50:03;;;;;;;7.65;7.22;;;;;;;;;;5035822;28;20049;-93
2023/04/09 13:52:29;;;;;;;7.55;7.00;;;;;;;;;;5035040;28;20049;-92
2023/04/09 13:54:56;;;;;;;6.97;6.38;;;;;;;;;;5035181;28;20057;-93
2023/04/09 13:57:24;;;;;;;10.25;9.65;;;;;;;;;;5035519;28;20053;-92
2023/04/09 13:59:50;;;;;;;10.82;10.27;;;;;;;;;;5035003;28;20401;-91
2023/04/09 14:02:17;;;;;;;7.47;6.97;;;;;;;;;;5035257;28;20068;-93
2023/04/09 14:04:44;;;;;;;9.60;9.15;;;;;;;;;;5020345;28;20072;-93
2023/04/09 14:07:11;;;;;;;10.05;9.43;;;;;;;;;;5015597;28;20050;-92
2023/04/09 14:09:37;;;;;;;8.65;8.23;;;;;;;;;;5016711;28;20060;-91
2023/04/09 14:12:04;;;;;;;9.23;8.70;;;;;;;;;;5016419;28;20076;-91
2023/04/09 14:14:32;;;;;;;9.90;9.45;;;;;;;;;;5035564;28;20073;-91
2023/04/09 14:16:58;;;;;;;8.65;8.07;;;;;;;;;;5035091;28;20053;-91
2023/04/09 14:19:25;;;;;;;12.20;11.32;;;;;;;;;;5035274;28;20448;-91
2023/04/09 14:21:53;;;;;;;9.32;8.73;;;;;;;;;;5033670;28;20048;-90
2023/04/09 14:24:21;;;;;;;9.05;8.55;;;;;;;;;;5034459;28;20045;-90
2023/04/09 14:26:48;;;;;;;7.40;7.00;;;;;;;;;;5034392;28;20061;-89
2023/04/09 14:29:14;;;;;;;8.45;7.93;;;;;;;;;;5034642;28;20056;-90
2023/04/09 14:31:42;;;;;;;7.50;7.00;;;;;;;;;;5034714;28;20682;-92
2023/04/09 14:34:09;;;;;;;6.47;6.18;;;;;;;;;;5034594;28;20071;-92